Time;durP1;ratioP1;P1;durP2;ratioP2;P2;SDS_P1;SDS_P2;PMS_P1;PMS_P2;Temp;Humidity;BMP_temperature;BMP_pressure;BME280_temperature;BME280_humidity;BME280_pressure;Samples;Min_cycle;Max_cycle;Signal;HPM_P1;HPM_P2
2023/12/11 00:02:09;;;;;;;0.30;0.30;;;;;;;;;;5117111;28;20495;-71
2023/12/11 00:04:34;;;;;;;0.30;0.30;;;;;;;;;;5117117;28;20418;-71
2023/12/11 00:07:00;;;;;;;0.40;0.40;;;;;;;;;;5116997;28;20461;-71
2023/12/11 00:09:26;;;;;;;0.67;0.30;;;;;;;;;;5117012;28;20436;-71
2023/12/11 00:11:52;;;;;;;0.97;0.40;;;;;;;;;;5117491;28;20404;-71
2023/12/11 00:14:18;;;;;;;2.27;0.33;;;;;;;;;;5117287;28;20779;-70
2023/12/11 00:16:46;;;;;;;0.30;0.30;;;;;;;;;;5116834;28;20439;-71
2023/12/11 00:19:12;;;;;;;0.30;0.30;;;;;;;;;;5116956;28;20432;-71
2023/12/11 00:21:39;;;;;;;0.40;0.40;;;;;;;;;;5117072;28;20483;-71
2023/12/11 00:24:06;;;;;;;0.30;0.30;;;;;;;;;;5116796;28;20412;-71
2023/12/11 00:26:32;;;;;;;0.40;0.40;;;;;;;;;;5116625;28;20937;-71
2023/12/11 00:28:58;;;;;;;0.40;0.40;;;;;;;;;;5116932;28;20476;-71
2023/12/11 00:31:24;;;;;;;1.43;0.30;;;;;;;;;;5116667;28;20919;-71
2023/12/11 00:33:50;;;;;;;0.40;0.40;;;;;;;;;;5116570;28;20741;-71
2023/12/11 00:36:16;;;;;;;0.30;0.30;;;;;;;;;;5116547;28;20776;-71
2023/12/11 00:38:42;;;;;;;1.27;0.50;;;;;;;;;;5116468;28;20782;-71
2023/12/11 00:41:08;;;;;;;0.30;0.30;;;;;;;;;;5116361;28;20467;-71
2023/12/11 00:43:34;;;;;;;0.50;0.50;;;;;;;;;;5116443;28;20416;-71
2023/12/11 00:46:00;;;;;;;0.50;0.50;;;;;;;;;;5117198;28;20780;-71
2023/12/11 00:48:26;;;;;;;0.40;0.40;;;;;;;;;;5116716;28;20412;-71
2023/12/11 00:50:52;;;;;;;4.43;0.50;;;;;;;;;;5116093;28;20423;-71
2023/12/11 00:53:18;;;;;;;0.30;0.30;;;;;;;;;;5116508;28;20412;-71
2023/12/11 00:55:44;;;;;;;0.33;0.33;;;;;;;;;;5116079;28;20569;-71
2023/12/11 00:58:10;;;;;;;1.03;0.30;;;;;;;;;;5116459;28;20411;-71
2023/12/11 01:00:36;;;;;;;5.00;0.43;;;;;;;;;;5116039;28;20508;-71
2023/12/11 01:03:03;;;;;;;0.40;0.40;;;;;;;;;;5115841;28;20852;-71
2023/12/11 01:05:29;;;;;;;0.40;0.40;;;;;;;;;;5116040;28;20416;-71
2023/12/11 01:07:55;;;;;;;0.40;0.40;;;;;;;;;;5116557;28;20492;-71
2023/12/11 01:10:21;;;;;;;0.40;0.40;;;;;;;;;;5116102;28;20416;-71
2023/12/11 01:12:47;;;;;;;0.83;0.40;;;;;;;;;;5115785;28;20800;-71
2023/12/11 01:15:12;;;;;;;0.30;0.30;;;;;;;;;;5115871;28;20864;-71
2023/12/11 01:17:39;;;;;;;0.40;0.40;;;;;;;;;;5115804;28;20544;-71
2023/12/11 01:20:05;;;;;;;0.30;0.30;;;;;;;;;;5115891;28;20420;-71
2023/12/11 01:22:31;;;;;;;0.40;0.40;;;;;;;;;;5115667;28;20423;-71
2023/12/11 01:25:01;;;;;;;1.80;0.30;;;;;;;;;;5115787;28;20473;-71
2023/12/11 01:27:27;;;;;;;0.30;0.30;;;;;;;;;;5115925;28;20411;-71
2023/12/11 01:29:53;;;;;;;2.30;0.40;;;;;;;;;;5115715;28;20776;-71
2023/12/11 01:32:19;;;;;;;4.80;0.40;;;;;;;;;;5115594;28;20416;-71
2023/12/11 01:34:45;;;;;;;0.30;0.30;;;;;;;;;;5115643;28;20415;-71
2023/12/11 01:37:11;;;;;;;0.30;0.30;;;;;;;;;;5115335;28;20430;-71
2023/12/11 01:39:37;;;;;;;0.40;0.40;;;;;;;;;;5115232;28;20507;-71
2023/12/11 01:42:03;;;;;;;0.40;0.40;;;;;;;;;;5115214;28;20477;-71
2023/12/11 01:44:30;;;;;;;0.30;0.30;;;;;;;;;;5115403;28;20412;-71
2023/12/11 01:46:56;;;;;;;0.63;0.40;;;;;;;;;;5115425;28;20427;-71
2023/12/11 01:49:22;;;;;;;0.30;0.30;;;;;;;;;;5115120;28;20502;-71
2023/12/11 01:51:48;;;;;;;0.77;0.50;;;;;;;;;;5115162;28;20454;-71
2023/12/11 01:54:16;;;;;;;0.40;0.40;;;;;;;;;;5115208;28;20411;-71
2023/12/11 01:56:42;;;;;;;2.93;0.47;;;;;;;;;;5115530;28;20408;-71
2023/12/11 01:59:08;;;;;;;0.63;0.30;;;;;;;;;;5115208;28;20419;-71
2023/12/11 02:01:34;;;;;;;0.40;0.40;;;;;;;;;;5113893;28;20491;-71
2023/12/11 02:04:01;;;;;;;0.80;0.50;;;;;;;;;;5115149;28;20412;-71
2023/12/11 02:06:27;;;;;;;0.73;0.40;;;;;;;;;;5114750;28;20416;-71
2023/12/11 02:08:52;;;;;;;0.30;0.30;;;;;;;;;;5114681;28;20786;-71
2023/12/11 02:11:20;;;;;;;0.30;0.30;;;;;;;;;;5114606;28;20435;-71
2023/12/11 02:13:46;;;;;;;0.30;0.30;;;;;;;;;;5114928;28;20473;-71
2023/12/11 02:16:15;;;;;;;0.43;0.40;;;;;;;;;;5114586;28;20412;-71
2023/12/11 02:18:41;;;;;;;0.30;0.30;;;;;;;;;;5114813;28;20439;-71
2023/12/11 02:21:07;;;;;;;0.97;0.30;;;;;;;;;;5114604;28;20471;-71
2023/12/11 02:23:39;;;;;;;0.30;0.30;;;;;;;;;;5114423;28;20438;-71
2023/12/11 02:26:11;;;;;;;0.30;0.30;;;;;;;;;;5114644;28;20441;-71
2023/12/11 02:28:37;;;;;;;0.40;0.40;;;;;;;;;;5114363;28;20416;-71
2023/12/11 02:31:03;;;;;;;0.30;0.30;;;;;;;;;;5114230;28;20464;-71
2023/12/11 02:33:29;;;;;;;0.40;0.40;;;;;;;;;;5114263;28;20418;-71
2023/12/11 02:35:55;;;;;;;0.30;0.30;;;;;;;;;;5114176;28;20424;-71
2023/12/11 02:38:21;;;;;;;0.20;0.20;;;;;;;;;;5114993;28;20451;-71
2023/12/11 02:40:47;;;;;;;0.20;0.20;;;;;;;;;;5114384;28;20474;-71
2023/12/11 02:43:13;;;;;;;0.40;0.40;;;;;;;;;;5114089;28;20986;-71
2023/12/11 02:45:39;;;;;;;0.30;0.30;;;;;;;;;;5114664;28;20875;-72
2023/12/11 02:48:05;;;;;;;0.30;0.30;;;;;;;;;;5114354;28;20419;-71
2023/12/11 02:50:31;;;;;;;0.30;0.30;;;;;;;;;;5114039;28;20415;-71
2023/12/11 02:52:58;;;;;;;0.30;0.30;;;;;;;;;;5113929;28;20411;-71
2023/12/11 02:55:24;;;;;;;0.40;0.40;;;;;;;;;;5114461;28;20496;-71
2023/12/11 02:57:50;;;;;;;0.57;0.50;;;;;;;;;;5113881;28;20430;-71
2023/12/11 03:00:16;;;;;;;0.50;0.50;;;;;;;;;;5113855;28;20416;-71
2023/12/11 03:02:42;;;;;;;0.57;0.50;;;;;;;;;;5113798;28;20464;-71
2023/12/11 03:05:08;;;;;;;2.63;0.30;;;;;;;;;;5113902;28;20903;-71
2023/12/11 03:07:34;;;;;;;0.40;0.40;;;;;;;;;;5113824;28;20411;-71
2023/12/11 03:10:00;;;;;;;0.30;0.30;;;;;;;;;;5113715;28;20777;-71
2023/12/11 03:12:26;;;;;;;0.40;0.40;;;;;;;;;;5113481;28;20944;-71
2023/12/11 03:14:52;;;;;;;0.50;0.40;;;;;;;;;;5113691;28;20506;-71
2023/12/11 03:17:18;;;;;;;0.33;0.33;;;;;;;;;;5113693;28;20419;-71
2023/12/11 03:22:47;;;;;;;0.40;0.40;;;;;;;;;;5113752;28;20456;-71
2023/12/11 03:25:13;;;;;;;0.33;0.33;;;;;;;;;;5113665;28;20399;-71
2023/12/11 03:27:39;;;;;;;0.30;0.30;;;;;;;;;;5113892;28;20536;-71
2023/12/11 03:30:05;;;;;;;0.33;0.33;;;;;;;;;;5113586;28;20415;-71
2023/12/11 03:32:31;;;;;;;0.30;0.30;;;;;;;;;;5113893;28;20415;-71
2023/12/11 03:34:57;;;;;;;0.70;0.40;;;;;;;;;;5113916;28;20763;-71
2023/12/11 03:37:24;;;;;;;0.60;0.50;;;;;;;;;;5113742;28;20747;-71
2023/12/11 03:39:50;;;;;;;0.40;0.40;;;;;;;;;;5113525;28;20418;-71
2023/12/11 03:42:16;;;;;;;0.40;0.40;;;;;;;;;;5113446;28;20467;-71
2023/12/11 03:44:42;;;;;;;0.93;0.40;;;;;;;;;;5113807;28;20404;-71
2023/12/11 03:47:07;;;;;;;0.50;0.50;;;;;;;;;;5113321;28;20890;-71
2023/12/11 03:49:34;;;;;;;0.40;0.40;;;;;;;;;;5113349;28;20891;-71
2023/12/11 03:52:00;;;;;;;0.70;0.53;;;;;;;;;;5113474;28;20411;-71
2023/12/11 03:54:26;;;;;;;0.40;0.40;;;;;;;;;;5113859;28;20956;-72
2023/12/11 03:56:52;;;;;;;0.30;0.30;;;;;;;;;;5113790;28;20465;-71
2023/12/11 03:59:17;;;;;;;5.07;0.30;;;;;;;;;;5113379;28;20416;-71
2023/12/11 04:01:44;;;;;;;1.33;0.63;;;;;;;;;;5113089;28;20962;-71
2023/12/11 04:04:10;;;;;;;0.70;0.53;;;;;;;;;;5113888;28;20388;-71
2023/12/11 04:06:36;;;;;;;0.60;0.60;;;;;;;;;;5111880;28;20431;-71
2023/12/11 04:09:04;;;;;;;0.30;0.30;;;;;;;;;;5113509;28;20415;-71
2023/12/11 04:11:30;;;;;;;0.50;0.50;;;;;;;;;;5113145;28;20414;-71
2023/12/11 04:13:56;;;;;;;0.47;0.47;;;;;;;;;;5113129;28;20408;-71
2023/12/11 04:16:22;;;;;;;0.40;0.40;;;;;;;;;;5113759;28;20472;-71
2023/12/11 04:18:48;;;;;;;0.37;0.37;;;;;;;;;;5113360;28;20488;-71
2023/12/11 04:21:14;;;;;;;0.30;0.30;;;;;;;;;;5113302;28;20977;-71
2023/12/11 04:23:40;;;;;;;0.43;0.40;;;;;;;;;;5113116;28;21021;-71
2023/12/11 04:26:06;;;;;;;0.40;0.40;;;;;;;;;;5116575;28;20502;-71
2023/12/11 04:28:32;;;;;;;0.93;0.50;;;;;;;;;;5117002;28;20411;-71
2023/12/11 04:30:58;;;;;;;0.30;0.30;;;;;;;;;;5116747;28;20468;-71
2023/12/11 04:33:24;;;;;;;0.30;0.30;;;;;;;;;;5117153;28;20412;-71
2023/12/11 04:35:50;;;;;;;0.30;0.30;;;;;;;;;;5116805;28;20506;-71
2023/12/11 04:38:16;;;;;;;0.30;0.30;;;;;;;;;;5116516;28;20430;-71
2023/12/11 04:40:42;;;;;;;0.40;0.40;;;;;;;;;;5116432;28;20466;-71
2023/12/11 04:43:08;;;;;;;1.03;0.40;;;;;;;;;;5116915;28;20416;-72
2023/12/11 04:45:34;;;;;;;0.57;0.40;;;;;;;;;;5116816;28;20871;-71
2023/12/11 04:48:00;;;;;;;0.30;0.30;;;;;;;;;;5116452;28;20846;-71
2023/12/11 04:50:26;;;;;;;0.30;0.30;;;;;;;;;;5116280;28;20545;-71
2023/12/11 04:52:52;;;;;;;0.30;0.30;;;;;;;;;;5116500;28;20525;-71
2023/12/11 04:55:18;;;;;;;0.30;0.30;;;;;;;;;;5116535;28;20407;-71
2023/12/11 04:57:44;;;;;;;0.23;0.23;;;;;;;;;;5116296;28;20510;-71
2023/12/11 05:00:10;;;;;;;1.50;0.30;;;;;;;;;;5116405;28;20415;-71
2023/12/11 05:02:36;;;;;;;0.60;0.60;;;;;;;;;;5115787;28;20513;-71
2023/12/11 05:05:02;;;;;;;0.20;0.20;;;;;;;;;;5116544;28;20445;-71
2023/12/11 05:07:28;;;;;;;0.30;0.30;;;;;;;;;;5116024;28;20461;-71
2023/12/11 05:09:54;;;;;;;0.33;0.33;;;;;;;;;;5115761;28;20411;-71
2023/12/11 05:12:20;;;;;;;0.30;0.30;;;;;;;;;;5116119;28;20914;-71
2023/12/11 05:14:46;;;;;;;0.30;0.30;;;;;;;;;;5116312;28;20879;-71
2023/12/11 05:17:12;;;;;;;0.47;0.47;;;;;;;;;;5116335;28;20871;-71
2023/12/11 05:19:37;;;;;;;1.33;0.47;;;;;;;;;;5115838;28;20494;-71
2023/12/11 05:22:04;;;;;;;0.30;0.30;;;;;;;;;;5115829;28;20820;-71
2023/12/11 05:24:29;;;;;;;0.43;0.30;;;;;;;;;;5115413;28;20423;-71
2023/12/11 05:26:55;;;;;;;0.70;0.30;;;;;;;;;;5115716;28;20419;-71
2023/12/11 05:29:21;;;;;;;2.10;0.33;;;;;;;;;;5114262;28;20427;-71
2023/12/11 05:31:47;;;;;;;2.00;0.43;;;;;;;;;;5115482;28;20506;-71
2023/12/11 05:34:13;;;;;;;0.40;0.40;;;;;;;;;;5116222;28;20412;-71
2023/12/11 05:36:39;;;;;;;0.33;0.33;;;;;;;;;;5115232;28;20416;-71
2023/12/11 05:39:06;;;;;;;0.40;0.40;;;;;;;;;;5115504;28;20408;-71
2023/12/11 05:41:32;;;;;;;0.40;0.40;;;;;;;;;;5114051;28;20512;-71
2023/12/11 05:43:59;;;;;;;1.70;0.30;;;;;;;;;;5115368;28;20438;-71
2023/12/11 05:46:25;;;;;;;1.60;0.60;;;;;;;;;;5115953;28;20451;-71
2023/12/11 05:48:51;;;;;;;0.40;0.40;;;;;;;;;;5115127;28;20410;-71
2023/12/11 05:51:17;;;;;;;0.67;0.57;;;;;;;;;;5114972;28;20510;-71
2023/12/11 05:53:43;;;;;;;0.30;0.30;;;;;;;;;;5115367;28;20420;-71
2023/12/11 05:56:09;;;;;;;1.20;0.60;;;;;;;;;;5113761;28;20423;-71
2023/12/11 05:58:35;;;;;;;0.70;0.70;;;;;;;;;;5114878;28;20430;-71
2023/12/11 06:01:01;;;;;;;1.10;1.10;;;;;;;;;;5114842;28;20464;-71
2023/12/11 06:03:28;;;;;;;2.30;0.40;;;;;;;;;;5114584;28;20451;-71
2023/12/11 06:05:57;;;;;;;0.43;0.40;;;;;;;;;;5114890;28;20503;-71
2023/12/11 06:08:24;;;;;;;0.60;0.60;;;;;;;;;;5115330;28;20407;-71
2023/12/11 06:10:50;;;;;;;0.73;0.73;;;;;;;;;;5114654;28;20404;-71
2023/12/11 06:13:16;;;;;;;0.87;0.60;;;;;;;;;;5114539;28;20422;-71
2023/12/11 06:15:43;;;;;;;1.70;0.30;;;;;;;;;;5114759;28;20772;-71
2023/12/11 06:18:08;;;;;;;0.57;0.50;;;;;;;;;;5114612;28;20419;-71
2023/12/11 06:20:34;;;;;;;0.40;0.40;;;;;;;;;;5114416;28;20520;-71
2023/12/11 06:23:00;;;;;;;1.23;0.50;;;;;;;;;;5114970;28;20474;-71
2023/12/11 06:25:26;;;;;;;0.30;0.30;;;;;;;;;;5114422;28;20415;-71
2023/12/11 06:27:52;;;;;;;0.40;0.40;;;;;;;;;;5114698;28;20421;-71
2023/12/11 06:30:18;;;;;;;0.50;0.50;;;;;;;;;;5114630;28;20891;-71
2023/12/11 06:32:44;;;;;;;0.63;0.63;;;;;;;;;;5114305;28;20420;-71
2023/12/11 06:35:10;;;;;;;2.70;0.60;;;;;;;;;;5114164;28;20426;-71
2023/12/11 06:37:36;;;;;;;0.50;0.50;;;;;;;;;;5114726;28;20471;-71
2023/12/11 06:40:03;;;;;;;0.40;0.40;;;;;;;;;;5114176;28;20767;-71
2023/12/11 06:42:32;;;;;;;0.40;0.40;;;;;;;;;;5114074;28;20501;-71
2023/12/11 06:44:58;;;;;;;0.40;0.40;;;;;;;;;;5114018;28;20422;-71
2023/12/11 06:47:24;;;;;;;1.23;0.40;;;;;;;;;;5114150;28;20420;-71
2023/12/11 06:49:50;;;;;;;0.40;0.40;;;;;;;;;;5114075;28;20765;-71
2023/12/11 06:52:16;;;;;;;0.30;0.30;;;;;;;;;;5113519;28;20503;-71
2023/12/11 06:54:42;;;;;;;0.60;0.60;;;;;;;;;;5113707;28;20503;-71
2023/12/11 06:57:08;;;;;;;1.60;0.90;;;;;;;;;;5113653;28;20497;-71
2023/12/11 06:59:34;;;;;;;0.67;0.67;;;;;;;;;;5114032;28;20455;-71
2023/12/11 07:02:00;;;;;;;0.70;0.70;;;;;;;;;;5113564;28;20475;-71
2023/12/11 07:04:26;;;;;;;1.20;1.03;;;;;;;;;;5114026;28;20412;-71
2023/12/11 07:06:52;;;;;;;3.90;0.40;;;;;;;;;;5113705;28;20419;-71
2023/12/11 07:09:19;;;;;;;0.50;0.50;;;;;;;;;;5114012;28;20895;-71
2023/12/11 07:11:45;;;;;;;1.17;0.60;;;;;;;;;;5114110;28;20423;-71
2023/12/11 07:14:10;;;;;;;2.67;0.97;;;;;;;;;;5113990;28;20412;-71
2023/12/11 07:16:36;;;;;;;1.27;0.60;;;;;;;;;;5113625;28;20423;-70
2023/12/11 07:19:07;;;;;;;1.23;0.83;;;;;;;;;;5113872;28;20408;-70
2023/12/11 07:21:33;;;;;;;0.60;0.60;;;;;;;;;;5113922;28;20557;-71
2023/12/11 07:23:59;;;;;;;0.50;0.50;;;;;;;;;;5113759;28;20919;-71
2023/12/11 07:26:25;;;;;;;0.30;0.30;;;;;;;;;;5113893;28;20812;-71
2023/12/11 07:28:52;;;;;;;0.50;0.50;;;;;;;;;;5113541;28;20793;-71
2023/12/11 07:31:18;;;;;;;0.50;0.50;;;;;;;;;;5113591;28;20423;-71
2023/12/11 07:33:44;;;;;;;0.50;0.50;;;;;;;;;;5113666;28;20968;-71
2023/12/11 07:36:10;;;;;;;0.90;0.53;;;;;;;;;;5113514;28;20419;-71
2023/12/11 07:38:36;;;;;;;0.67;0.40;;;;;;;;;;5113377;28;20418;-71
2023/12/11 07:41:03;;;;;;;0.57;0.57;;;;;;;;;;5113441;28;20463;-71
2023/12/11 07:43:29;;;;;;;1.53;0.40;;;;;;;;;;5113687;28;20423;-72
2023/12/11 07:45:55;;;;;;;5.23;0.50;;;;;;;;;;5113610;28;20407;-71
2023/12/11 07:48:21;;;;;;;0.73;0.73;;;;;;;;;;5113516;28;20431;-71
2023/12/11 07:50:47;;;;;;;0.60;0.53;;;;;;;;;;5114152;28;20507;-71
2023/12/11 07:53:13;;;;;;;2.73;0.60;;;;;;;;;;5113471;28;20412;-72
2023/12/11 07:55:39;;;;;;;1.50;0.60;;;;;;;;;;5113090;28;20419;-72
2023/12/11 07:58:06;;;;;;;0.40;0.40;;;;;;;;;;5112497;28;20960;-71
2023/12/11 08:00:32;;;;;;;0.40;0.40;;;;;;;;;;5115939;28;20423;-71
2023/12/11 08:02:58;;;;;;;0.57;0.57;;;;;;;;;;5116440;28;20467;-71
2023/12/11 08:05:24;;;;;;;0.97;0.80;;;;;;;;;;5117099;28;20427;-71
2023/12/11 08:07:50;;;;;;;0.60;0.43;;;;;;;;;;5116771;28;20926;-71
2023/12/11 08:10:16;;;;;;;0.80;0.80;;;;;;;;;;5117029;28;20505;-71
2023/12/11 08:12:42;;;;;;;0.90;0.90;;;;;;;;;;5117093;28;20412;-71
2023/12/11 08:15:08;;;;;;;0.50;0.50;;;;;;;;;;5115237;28;20551;-71
2023/12/11 08:17:34;;;;;;;0.77;0.60;;;;;;;;;;5116489;28;20944;-71
2023/12/11 08:20:00;;;;;;;2.87;2.77;;;;;;;;;;5116610;28;20419;-71
2023/12/11 08:22:26;;;;;;;1.47;1.37;;;;;;;;;;5116760;28;20467;-71
2023/12/11 08:24:52;;;;;;;1.83;1.50;;;;;;;;;;5116751;28;20499;-71
2023/12/11 08:27:18;;;;;;;3.33;3.13;;;;;;;;;;5116475;28;20885;-71
2023/12/11 08:29:46;;;;;;;4.03;3.80;;;;;;;;;;5116661;28;20412;-71
2023/12/11 08:32:12;;;;;;;3.93;1.80;;;;;;;;;;5116491;28;20416;-71
2023/12/11 08:34:38;;;;;;;2.87;2.67;;;;;;;;;;5116998;28;20495;-71
2023/12/11 08:37:04;;;;;;;1.30;1.20;;;;;;;;;;5116271;28;20979;-71
2023/12/11 08:42:33;;;;;;;6.10;0.60;;;;;;;;;;5116103;28;20571;-74
2023/12/11 08:44:59;;;;;;;0.70;0.70;;;;;;;;;;5116289;28;20408;-74
2023/12/11 08:47:25;;;;;;;1.23;0.40;;;;;;;;;;5116083;28;20785;-73
2023/12/11 08:49:51;;;;;;;2.10;1.37;;;;;;;;;;5116007;28;20418;-74
2023/12/11 08:52:17;;;;;;;1.53;0.80;;;;;;;;;;5115977;28;20426;-75
2023/12/11 08:54:43;;;;;;;1.00;0.70;;;;;;;;;;5116279;28;20465;-73
2023/12/11 08:57:09;;;;;;;0.67;0.63;;;;;;;;;;5116161;28;20772;-72
2023/12/11 08:59:37;;;;;;;3.60;0.70;;;;;;;;;;5115819;28;20428;-71
2023/12/11 09:02:03;;;;;;;1.03;0.80;;;;;;;;;;5115599;28;20487;-69
2023/12/11 09:04:29;;;;;;;1.30;0.50;;;;;;;;;;5114905;28;20540;-71
2023/12/11 09:06:55;;;;;;;1.17;0.83;;;;;;;;;;5115725;28;20425;-72
2023/12/11 09:09:21;;;;;;;1.17;0.53;;;;;;;;;;5115664;28;20454;-71
2023/12/11 09:11:48;;;;;;;1.50;0.77;;;;;;;;;;5115266;28;20929;-71
2023/12/11 09:14:14;;;;;;;1.20;1.20;;;;;;;;;;5116146;28;20419;-71
2023/12/11 09:16:40;;;;;;;4.22;2.38;;;;;;;;;;5115285;28;20560;-72
2023/12/11 09:19:06;;;;;;;1.30;1.13;;;;;;;;;;5115790;28;20170;-70
2023/12/11 09:21:34;;;;;;;0.93;0.93;;;;;;;;;;5115786;28;20562;-71
2023/12/11 09:24:00;;;;;;;0.50;0.50;;;;;;;;;;5115547;28;20432;-71
2023/12/11 09:26:27;;;;;;;1.37;0.60;;;;;;;;;;5115647;28;20416;-71
2023/12/11 09:28:52;;;;;;;0.80;0.63;;;;;;;;;;5115693;28;20408;-71
2023/12/11 09:31:24;;;;;;;2.97;1.00;;;;;;;;;;5115497;28;20906;-71
2023/12/11 09:33:50;;;;;;;1.40;1.30;;;;;;;;;;5114045;28;20804;-71
2023/12/11 09:36:16;;;;;;;0.80;0.80;;;;;;;;;;5115097;28;20213;-70
2023/12/11 09:38:42;;;;;;;0.60;0.60;;;;;;;;;;5115333;28;20412;-71
2023/12/11 09:41:08;;;;;;;0.60;0.60;;;;;;;;;;5114981;28;20459;-71
2023/12/11 09:43:36;;;;;;;0.53;0.53;;;;;;;;;;5115220;28;20758;-71
2023/12/11 09:46:02;;;;;;;0.43;0.43;;;;;;;;;;5115374;28;20448;-71
2023/12/11 09:48:28;;;;;;;2.10;0.47;;;;;;;;;;5115139;28;20472;-72
2023/12/11 09:50:54;;;;;;;0.90;0.70;;;;;;;;;;5114882;28;20416;-71
2023/12/11 09:53:20;;;;;;;0.93;0.93;;;;;;;;;;5115275;28;20416;-70
2023/12/11 09:55:47;;;;;;;0.93;0.90;;;;;;;;;;5115037;28;20426;-71
2023/12/11 09:58:13;;;;;;;1.07;1.07;;;;;;;;;;5115054;28;20430;-71
2023/12/11 10:00:42;;;;;;;2.30;1.30;;;;;;;;;;5114825;28;20423;-71
2023/12/11 10:03:08;;;;;;;2.17;2.07;;;;;;;;;;5114336;28;20487;-71
2023/12/11 10:05:35;;;;;;;1.03;1.03;;;;;;;;;;5114932;28;20484;-70
2023/12/11 10:08:01;;;;;;;0.93;0.83;;;;;;;;;;5114584;28;20906;-71
2023/12/11 10:10:31;;;;;;;1.13;0.80;;;;;;;;;;5114805;28;20400;-71
2023/12/11 10:12:58;;;;;;;0.93;0.40;;;;;;;;;;5114705;28;20408;-72
2023/12/11 10:15:28;;;;;;;0.40;0.40;;;;;;;;;;5114713;28;20465;-71
2023/12/11 10:18:03;;;;;;;0.73;0.30;;;;;;;;;;5114353;28;20907;-71
2023/12/11 10:20:29;;;;;;;1.37;0.60;;;;;;;;;;5114373;28;20407;-71
2023/12/11 10:22:55;;;;;;;0.50;0.50;;;;;;;;;;5113682;28;20428;-71
2023/12/11 10:25:25;;;;;;;1.30;0.90;;;;;;;;;;5112994;28;20501;-71
2023/12/11 10:27:51;;;;;;;0.60;0.60;;;;;;;;;;5114427;28;20899;-70
2023/12/11 10:30:18;;;;;;;1.03;1.03;;;;;;;;;;5114132;28;20404;-71
2023/12/11 10:32:44;;;;;;;0.97;0.50;;;;;;;;;;5114032;28;20447;-70
2023/12/11 10:35:22;;;;;;;2.20;0.50;;;;;;;;;;5112812;28;20465;-71
2023/12/11 10:37:48;;;;;;;0.57;0.57;;;;;;;;;;5114288;28;20495;-71
2023/12/11 10:43:17;;;;;;;0.77;0.47;;;;;;;;;;5114222;28;20458;-71
2023/12/11 10:45:44;;;;;;;1.00;1.00;;;;;;;;;;5114191;28;20447;-71
2023/12/11 10:48:10;;;;;;;0.50;0.50;;;;;;;;;;5114144;28;20469;-71
2023/12/11 10:50:36;;;;;;;1.23;0.40;;;;;;;;;;5113553;28;20432;-71
2023/12/11 10:53:03;;;;;;;0.70;0.63;;;;;;;;;;5113750;28;20426;-70
2023/12/11 10:55:29;;;;;;;0.33;0.33;;;;;;;;;;5113672;28;20969;-71
2023/12/11 10:57:58;;;;;;;0.50;0.50;;;;;;;;;;5113524;28;20447;-71
2023/12/11 11:00:24;;;;;;;0.70;0.60;;;;;;;;;;5113852;28;20419;-71
2023/12/11 11:02:52;;;;;;;0.50;0.50;;;;;;;;;;5111973;28;20534;-71
2023/12/11 11:05:19;;;;;;;0.80;0.80;;;;;;;;;;5113571;28;20431;-71
2023/12/11 11:08:02;;;;;;;0.67;0.67;;;;;;;;;;5113565;28;20448;-71
2023/12/11 11:10:32;;;;;;;1.13;0.80;;;;;;;;;;5112327;28;20428;-71
2023/12/11 11:13:05;;;;;;;4.13;3.93;;;;;;;;;;5113744;28;20568;-71
2023/12/11 11:15:31;;;;;;;1.00;0.90;;;;;;;;;;5113817;28;20477;-71
2023/12/11 11:18:01;;;;;;;4.67;1.83;;;;;;;;;;5113450;28;20416;-71
2023/12/11 11:20:27;;;;;;;1.70;1.70;;;;;;;;;;5113320;28;20431;-71
2023/12/11 11:23:13;;;;;;;2.37;2.30;;;;;;;;;;5113298;28;20924;-71
2023/12/11 11:25:39;;;;;;;4.87;4.47;;;;;;;;;;5113399;28;20772;-65
2023/12/11 11:28:05;;;;;;;14.82;10.93;;;;;;;;;;5112464;28;20421;-71
2023/12/11 11:30:44;;;;;;;13.63;9.93;;;;;;;;;;5113803;28;20261;-71
2023/12/11 11:33:10;;;;;;;4.47;4.37;;;;;;;;;;5113938;28;20423;-71
2023/12/11 11:35:45;;;;;;;2.97;2.87;;;;;;;;;;5117699;28;20982;-71
2023/12/11 11:38:17;;;;;;;3.00;2.80;;;;;;;;;;5117708;28;20589;-71
2023/12/11 11:40:44;;;;;;;4.50;4.20;;;;;;;;;;5117908;28;20408;-71
2023/12/11 11:43:10;;;;;;;40.00;24.00;;;;;;;;;;5117556;27;20423;-71
2023/12/11 11:45:36;;;;;;;16.20;7.90;;;;;;;;;;5117346;28;20497;-71
2023/12/11 11:48:03;;;;;;;19.73;6.43;;;;;;;;;;5117261;28;20433;-71
2023/12/11 11:50:29;;;;;;;4.00;3.80;;;;;;;;;;5117062;28;20416;-71
2023/12/11 11:52:59;;;;;;;4.17;3.97;;;;;;;;;;5117214;28;20510;-71
2023/12/11 11:55:26;;;;;;;14.30;8.97;;;;;;;;;;5117684;28;20502;-71
2023/12/11 11:57:52;;;;;;;4.27;3.50;;;;;;;;;;5117371;28;20510;-71
2023/12/11 12:00:25;;;;;;;9.17;7.90;;;;;;;;;;5117032;28;20437;-71
2023/12/11 12:03:03;;;;;;;11.10;7.23;;;;;;;;;;5116736;28;20471;-71
2023/12/11 12:05:29;;;;;;;3.50;3.20;;;;;;;;;;5117332;28;20472;-71
2023/12/11 12:07:55;;;;;;;1.60;1.60;;;;;;;;;;5116739;28;20900;-71
2023/12/11 12:10:22;;;;;;;4.37;3.80;;;;;;;;;;5117260;28;20540;-71
2023/12/11 12:12:50;;;;;;;3.00;2.77;;;;;;;;;;5116815;28;20514;-71
2023/12/11 12:15:16;;;;;;;3.37;2.70;;;;;;;;;;5117065;28;20443;-71
2023/12/11 12:17:42;;;;;;;1.70;1.70;;;;;;;;;;5117182;28;20403;-71
2023/12/11 12:20:18;;;;;;;6.33;4.53;;;;;;;;;;5117042;28;20407;-71
2023/12/11 12:22:59;;;;;;;9.57;7.77;;;;;;;;;;5116425;28;20466;-71
2023/12/11 12:25:29;;;;;;;1.40;1.40;;;;;;;;;;5116728;28;20445;-71
2023/12/11 12:27:58;;;;;;;2.30;2.13;;;;;;;;;;5116381;28;20404;-71
2023/12/11 12:30:24;;;;;;;2.60;1.87;;;;;;;;;;5116382;28;20472;-71
2023/12/11 12:32:50;;;;;;;2.80;2.60;;;;;;;;;;5116242;28;20465;-71
2023/12/11 12:35:18;;;;;;;1.80;1.70;;;;;;;;;;5116579;28;20887;-71
2023/12/11 12:37:44;;;;;;;2.93;2.10;;;;;;;;;;5116326;28;20453;-70
2023/12/11 12:40:11;;;;;;;2.40;2.00;;;;;;;;;;5114941;28;20782;-71
2023/12/11 12:42:38;;;;;;;1.90;1.80;;;;;;;;;;5116329;28;20463;-71
2023/12/11 12:45:04;;;;;;;5.23;3.50;;;;;;;;;;5115034;28;20991;-72
2023/12/11 12:47:31;;;;;;;4.70;3.67;;;;;;;;;;5115990;28;20794;-71
2023/12/11 12:53:10;;;;;;;3.03;1.73;;;;;;;;;;5116019;28;20383;-72
2023/12/11 12:55:36;;;;;;;0.83;0.83;;;;;;;;;;5116272;28;20416;-71
2023/12/11 12:58:03;;;;;;;14.80;6.93;;;;;;;;;;5115978;28;20426;-72
2023/12/11 13:00:29;;;;;;;16.93;9.30;;;;;;;;;;5115803;28;20506;-71
2023/12/11 13:02:55;;;;;;;32.50;16.20;;;;;;;;;;5115580;28;20575;-72
2023/12/11 13:05:21;;;;;;;23.93;12.50;;;;;;;;;;5116030;28;20424;-72
2023/12/11 13:07:57;;;;;;;6.53;5.10;;;;;;;;;;5115983;28;20498;-71
2023/12/11 13:10:24;;;;;;;1.70;1.30;;;;;;;;;;5115595;28;20428;-71
2023/12/11 13:12:50;;;;;;;2.90;2.30;;;;;;;;;;5115648;28;20762;-71
2023/12/11 13:15:16;;;;;;;1.90;1.80;;;;;;;;;;5115880;28;20784;-71
2023/12/11 13:17:50;;;;;;;1.00;1.00;;;;;;;;;;5115761;28;20420;-72
2023/12/11 13:20:16;;;;;;;0.80;0.80;;;;;;;;;;5115495;28;20906;-71
2023/12/11 13:22:41;;;;;;;1.90;1.90;;;;;;;;;;5115336;28;20550;-71
2023/12/11 13:25:08;;;;;;;2.03;2.03;;;;;;;;;;5115697;28;20902;-72
2023/12/11 13:27:34;;;;;;;2.23;2.07;;;;;;;;;;5115680;28;20495;-72
2023/12/11 13:30:00;;;;;;;2.33;2.23;;;;;;;;;;5115624;28;20824;-71
2023/12/11 13:32:26;;;;;;;1.67;1.13;;;;;;;;;;5115246;28;20443;-71
2023/12/11 13:34:52;;;;;;;1.57;1.57;;;;;;;;;;5115479;28;20423;-72
2023/12/11 13:37:19;;;;;;;1.10;1.10;;;;;;;;;;5114630;28;20469;-71
2023/12/11 13:39:45;;;;;;;1.00;1.00;;;;;;;;;;5115176;28;20447;-71
2023/12/11 13:42:11;;;;;;;0.80;0.80;;;;;;;;;;5115217;27;20478;-72
2023/12/11 13:44:37;;;;;;;0.60;0.60;;;;;;;;;;5114946;28;20408;-71
2023/12/11 13:47:03;;;;;;;1.70;0.90;;;;;;;;;;5114870;28;20416;-71
2023/12/11 13:49:29;;;;;;;0.67;0.67;;;;;;;;;;5115108;28;20420;-71
2023/12/11 13:51:55;;;;;;;0.73;0.73;;;;;;;;;;5115137;28;20903;-71
2023/12/11 13:54:23;;;;;;;1.30;1.20;;;;;;;;;;5114714;28;20404;-71
2023/12/11 13:56:49;;;;;;;0.93;0.93;;;;;;;;;;5115016;28;20443;-71
2023/12/11 13:59:15;;;;;;;1.13;1.00;;;;;;;;;;5114733;28;20404;-71
2023/12/11 14:01:41;;;;;;;0.87;0.70;;;;;;;;;;5114304;28;20479;-70
2023/12/11 14:04:07;;;;;;;2.07;0.60;;;;;;;;;;5114800;28;20941;-70
2023/12/11 14:06:33;;;;;;;0.53;0.53;;;;;;;;;;5115045;28;20755;-71
2023/12/11 14:08:59;;;;;;;0.40;0.40;;;;;;;;;;5114723;28;20438;-70
2023/12/11 14:11:25;;;;;;;0.60;0.50;;;;;;;;;;5114743;28;20407;-71
2023/12/11 14:13:51;;;;;;;0.90;0.90;;;;;;;;;;5114134;28;20825;-71
2023/12/11 14:16:16;;;;;;;1.23;1.13;;;;;;;;;;5114553;28;20452;-71
2023/12/11 14:18:42;;;;;;;1.57;1.57;;;;;;;;;;5114756;28;20416;-71
2023/12/11 14:21:12;;;;;;;5.23;0.70;;;;;;;;;;5114537;28;20865;-72
2023/12/11 14:23:38;;;;;;;2.47;2.37;;;;;;;;;;5114271;28;20533;-71
2023/12/11 14:26:04;;;;;;;1.60;0.90;;;;;;;;;;5113807;27;20424;-72
2023/12/11 14:28:30;;;;;;;4.23;3.93;;;;;;;;;;5114641;28;20415;-71
2023/12/11 14:30:56;;;;;;;9.23;1.60;;;;;;;;;;5112704;28;20424;-71
2023/12/11 14:33:22;;;;;;;4.00;1.30;;;;;;;;;;5114063;28;20419;-71
2023/12/11 14:35:48;;;;;;;0.90;0.90;;;;;;;;;;5114082;28;20419;-71
2023/12/11 14:38:14;;;;;;;0.70;0.70;;;;;;;;;;5114421;28;20412;-71
2023/12/11 14:40:40;;;;;;;2.47;0.80;;;;;;;;;;5113914;28;20887;-72
2023/12/11 14:43:06;;;;;;;0.87;0.50;;;;;;;;;;5113800;28;20903;-71
2023/12/11 14:45:32;;;;;;;3.83;0.60;;;;;;;;;;5113954;28;20773;-70
2023/12/11 14:47:58;;;;;;;3.03;0.80;;;;;;;;;;5113761;28;20455;-72
2023/12/11 14:50:24;;;;;;;0.87;0.70;;;;;;;;;;5113753;28;20427;-73
2023/12/11 14:52:52;;;;;;;1.13;0.60;;;;;;;;;;5113893;28;20473;-71